createdAt,value
2022-09-27T00:02:16.943Z,11.70
2022-09-27T00:04:46.748Z,11.70
2022-09-27T00:07:14.669Z,11.70
2022-09-27T00:09:42.590Z,11.70
2022-09-27T00:12:12.064Z,11.70
2022-09-27T00:14:39.997Z,11.70
2022-09-27T00:17:11.156Z,11.70
2022-09-27T00:19:39.206Z,11.70
2022-09-27T00:22:07.122Z,11.70
2022-09-27T00:24:35.280Z,11.70
2022-09-27T00:27:03.251Z,11.70
2022-09-27T00:29:32.688Z,11.70
2022-09-27T00:32:00.626Z,11.70
2022-09-27T00:34:28.540Z,11.70
2022-09-27T00:36:56.909Z,11.70
2022-09-27T00:39:24.985Z,11.70
2022-09-27T00:41:53.046Z,11.70
2022-09-27T00:45:03.874Z,11.70
2022-09-27T00:47:42.022Z,11.70
2022-09-27T00:50:19.423Z,11.70
2022-09-27T00:52:55.167Z,11.70
2022-09-27T00:55:28.625Z,11.70
2022-09-27T00:57:57.510Z,11.70
2022-09-27T01:00:25.694Z,11.70
2022-09-27T01:02:57.950Z,11.70
2022-09-27T01:05:29.081Z,11.70
2022-09-27T01:07:59.831Z,11.70
2022-09-27T01:10:33.302Z,11.70
2022-09-27T01:13:10.124Z,11.70
2022-09-27T01:15:44.081Z,11.70
2022-09-27T01:18:25.237Z,11.70
2022-09-27T01:21:38.372Z,11.70
2022-09-27T01:24:43.187Z,11.70
2022-09-27T01:27:41.858Z,11.70
2022-09-27T01:30:22.220Z,11.60
2022-09-27T01:32:56.165Z,11.60
2022-09-27T01:35:32.032Z,11.50
2022-09-27T01:38:10.674Z,11.50
2022-09-27T01:40:44.610Z,11.60
2022-09-27T01:43:18.702Z,11.50
2022-09-27T01:45:55.421Z,11.60
2022-09-27T01:48:25.309Z,11.60
2022-09-27T01:50:58.169Z,11.50
2022-09-27T01:53:30.422Z,11.50
2022-09-27T01:56:03.555Z,11.50
2022-09-27T01:58:38.246Z,11.50
2022-09-27T02:01:09.183Z,11.50
2022-09-27T02:03:44.350Z,11.50
2022-09-27T02:06:15.912Z,11.50
2022-09-27T02:08:47.575Z,11.40
2022-09-27T02:11:16.512Z,11.40
2022-09-27T02:13:49.652Z,11.30
2022-09-27T02:16:26.237Z,11.20
2022-09-27T02:19:02.830Z,11.10
2022-09-27T02:21:42.137Z,11.10
2022-09-27T02:24:14.126Z,11.00
2022-09-27T02:26:46.322Z,10.90
2022-09-27T02:29:18.093Z,10.90
2022-09-27T02:31:49.461Z,10.80
2022-09-27T02:34:21.116Z,10.80
2022-09-27T02:36:49.373Z,10.80
2022-09-27T02:39:19.154Z,10.70
2022-09-27T02:41:47.203Z,10.70
2022-09-27T02:44:17.683Z,10.70
2022-09-27T02:47:24.413Z,10.70
2022-09-27T02:50:04.458Z,10.70
2022-09-27T02:52:43.400Z,10.60
2022-09-27T02:55:19.755Z,10.60
2022-09-27T02:57:59.203Z,10.60
2022-09-27T03:00:35.240Z,10.60
2022-09-27T03:03:10.629Z,10.60
2022-09-27T03:05:42.593Z,10.60
2022-09-27T03:08:11.988Z,10.60
2022-09-27T03:10:39.937Z,10.60
2022-09-27T03:13:09.708Z,10.60
2022-09-27T03:15:37.648Z,10.60
2022-09-27T03:18:07.583Z,10.60
2022-09-27T03:20:35.522Z,10.60
2022-09-27T03:23:03.426Z,10.60
2022-09-27T03:25:31.370Z,10.60
2022-09-27T03:27:59.288Z,10.60
2022-09-27T03:30:27.238Z,10.60
2022-09-27T03:32:55.121Z,10.60
2022-09-27T03:35:24.431Z,10.70
2022-09-27T03:37:52.345Z,10.70
2022-09-27T03:40:20.262Z,10.70
2022-09-27T03:42:50.089Z,10.70
2022-09-27T03:45:20.988Z,10.70
2022-09-27T03:47:49.055Z,10.80
2022-09-27T03:50:17.261Z,10.70
2022-09-27T03:52:46.608Z,10.70
2022-09-27T03:55:14.931Z,10.80
2022-09-27T03:57:46.808Z,10.70
2022-09-27T04:00:15.940Z,10.70
2022-09-27T04:02:43.970Z,10.70
2022-09-27T04:05:12.414Z,10.70
2022-09-27T04:07:40.348Z,10.70
2022-09-27T04:10:10.281Z,10.70
2022-09-27T04:12:40.505Z,10.70
2022-09-27T04:15:09.361Z,10.70
2022-09-27T04:17:37.278Z,10.70
2022-09-27T04:20:05.784Z,10.70
2022-09-27T04:22:33.732Z,10.70
2022-09-27T04:25:01.738Z,10.70
2022-09-27T04:27:30.991Z,10.70
2022-09-27T04:29:59.281Z,10.70
2022-09-27T04:32:27.366Z,10.70
2022-09-27T04:35:12.626Z,10.80
2022-09-27T04:37:41.861Z,10.70
2022-09-27T04:40:10.295Z,10.70
2022-09-27T04:42:39.579Z,10.70
2022-09-27T04:45:08.498Z,10.70
2022-09-27T04:47:36.404Z,10.70
2022-09-27T04:50:04.432Z,10.70
2022-09-27T04:52:32.728Z,10.60
2022-09-27T04:55:00.644Z,10.60
2022-09-27T04:57:28.513Z,10.60
2022-09-27T05:00:00.288Z,10.60
2022-09-27T05:02:28.565Z,10.60
2022-09-27T05:04:59.459Z,10.60
2022-09-27T05:07:27.676Z,10.60
2022-09-27T05:09:56.738Z,10.50
2022-09-27T05:12:26.811Z,10.50
2022-09-27T05:14:54.765Z,10.60
2022-09-27T05:17:23.994Z,10.50
2022-09-27T05:19:52.203Z,10.60
2022-09-27T05:22:20.246Z,10.60
2022-09-27T05:24:48.293Z,10.50
2022-09-27T05:27:20.565Z,10.50
2022-09-27T05:29:49.130Z,10.50
2022-09-27T05:32:17.289Z,10.60
2022-09-27T05:34:46.569Z,10.50
2022-09-27T05:37:14.484Z,10.50
2022-09-27T05:39:42.457Z,10.50
2022-09-27T05:42:12.195Z,10.60
2022-09-27T05:44:40.323Z,10.60
2022-09-27T05:47:08.237Z,10.50
2022-09-27T05:49:37.249Z,10.50
2022-09-27T05:52:06.509Z,10.50
2022-09-27T05:54:34.639Z,10.50
2022-09-27T05:57:02.532Z,10.50
2022-09-27T05:59:30.471Z,10.50
2022-09-27T06:01:58.422Z,10.50
2022-09-27T06:04:26.411Z,10.50
2022-09-27T06:06:54.560Z,10.50
2022-09-27T06:09:24.341Z,10.50
2022-09-27T06:11:52.229Z,10.50
2022-09-27T06:14:20.868Z,10.50
2022-09-27T06:16:48.833Z,10.60
2022-09-27T06:19:17.467Z,10.50
2022-09-27T06:21:45.384Z,10.50
2022-09-27T06:24:13.572Z,10.60
2022-09-27T06:26:42.753Z,10.60
2022-09-27T06:29:10.862Z,10.60
2022-09-27T06:31:38.754Z,10.60
2022-09-27T06:34:08.285Z,10.60
2022-09-27T06:36:36.205Z,10.70
2022-09-27T06:39:04.348Z,10.70
2022-09-27T06:41:33.328Z,10.80
2022-09-27T06:44:03.094Z,10.70
2022-09-27T06:46:31.010Z,10.80
2022-09-27T06:48:58.899Z,10.80
2022-09-27T06:51:26.752Z,10.80
2022-09-27T06:53:54.680Z,10.90
2022-09-27T06:56:22.596Z,10.90
2022-09-27T06:59:07.963Z,11.00
2022-09-27T07:01:37.233Z,11.10
2022-09-27T07:04:07.218Z,11.10
2022-09-27T07:06:35.144Z,11.10
2022-09-27T07:09:03.135Z,11.20
2022-09-27T07:11:31.163Z,11.30
2022-09-27T07:13:59.416Z,11.30
2022-09-27T07:16:27.486Z,11.40
2022-09-27T07:18:56.784Z,11.30
2022-09-27T07:21:24.834Z,11.40
2022-09-27T07:23:52.759Z,11.40
2022-09-27T07:26:20.658Z,11.40
2022-09-27T07:28:48.576Z,11.30
2022-09-27T07:31:17.119Z,11.30
2022-09-27T07:33:45.151Z,11.30
2022-09-27T07:36:15.071Z,11.30
2022-09-27T07:38:43.185Z,11.30
2022-09-27T07:41:14.160Z,11.30
2022-09-27T07:43:42.218Z,11.50
2022-09-27T07:46:11.174Z,11.60
2022-09-27T07:48:39.176Z,11.70
2022-09-27T07:51:08.414Z,11.80
2022-09-27T07:53:37.765Z,11.80
2022-09-27T07:56:05.845Z,11.90
2022-09-27T07:58:33.742Z,12.00
2022-09-27T08:01:02.480Z,12.00
2022-09-27T08:03:31.664Z,12.10
2022-09-27T08:06:04.149Z,12.30
2022-09-27T08:08:32.209Z,12.50
2022-09-27T08:11:01.475Z,12.60
2022-09-27T08:13:29.614Z,12.70
2022-09-27T08:16:03.009Z,12.70
2022-09-27T08:18:30.958Z,12.70
2022-09-27T08:20:58.984Z,12.60
2022-09-27T08:23:26.939Z,12.40
2022-09-27T08:25:55.184Z,12.30
2022-09-27T08:28:24.567Z,12.30
2022-09-27T08:30:52.498Z,12.20
2022-09-27T08:33:20.383Z,12.30
2022-09-27T08:35:48.245Z,12.30
2022-09-27T08:38:16.113Z,12.40
2022-09-27T08:40:54.554Z,12.50
2022-09-27T08:43:33.906Z,12.50
2022-09-27T08:46:12.143Z,12.40
2022-09-27T08:48:41.076Z,12.40
2022-09-27T08:51:14.652Z,12.30
2022-09-27T08:53:49.287Z,12.30
2022-09-27T08:56:21.193Z,12.30
2022-09-27T08:58:53.977Z,12.30
2022-09-27T09:01:26.338Z,12.40
2022-09-27T09:04:00.824Z,12.50
2022-09-27T09:06:32.124Z,12.60
2022-09-27T09:09:10.292Z,12.70
2022-09-27T09:12:10.407Z,12.80
2022-09-27T09:15:11.593Z,13.00
2022-09-27T09:17:56.310Z,13.10
2022-09-27T09:20:41.361Z,13.30
2022-09-27T09:23:39.827Z,13.50
2022-09-27T09:26:15.350Z,13.70
2022-09-27T09:28:58.297Z,13.90
2022-09-27T09:31:35.699Z,14.00
2022-09-27T09:34:11.206Z,14.30
2022-09-27T09:36:45.398Z,14.50
2022-09-27T09:39:17.847Z,14.70
2022-09-27T09:42:06.266Z,14.90
2022-09-27T09:44:41.806Z,15.10
2022-09-27T09:47:20.185Z,15.30
2022-09-27T09:49:52.828Z,15.50
2022-09-27T09:52:24.607Z,15.70
2022-09-27T09:54:57.358Z,15.80
2022-09-27T09:57:29.552Z,16.10
2022-09-27T10:00:01.199Z,16.30
2022-09-27T10:02:35.929Z,16.40
2022-09-27T10:05:07.904Z,16.30
2022-09-27T10:07:38.461Z,16.20
2022-09-27T10:10:08.562Z,16.10
2022-09-27T10:12:37.590Z,15.90
2022-09-27T10:15:06.837Z,15.70
2022-09-27T10:17:39.723Z,15.60
2022-09-27T10:20:08.781Z,15.50
2022-09-27T10:22:39.777Z,15.50
2022-09-27T10:25:09.338Z,15.50
2022-09-27T10:27:41.934Z,15.60
2022-09-27T10:30:28.858Z,15.70
2022-09-27T10:33:01.176Z,15.70
2022-09-27T10:35:37.979Z,15.80
2022-09-27T10:38:27.657Z,16.00
2022-09-27T10:40:57.149Z,16.00
2022-09-27T10:43:31.243Z,16.00
2022-09-27T10:46:10.747Z,16.00
2022-09-27T10:48:42.040Z,15.90
2022-09-27T10:51:25.670Z,15.60
2022-09-27T10:53:54.115Z,15.50
2022-09-27T10:56:25.132Z,15.50
2022-09-27T10:58:53.737Z,15.70
2022-09-27T11:01:22.105Z,15.90
2022-09-27T11:03:53.961Z,16.00
2022-09-27T11:06:37.797Z,16.10
2022-09-27T11:09:19.715Z,16.10
2022-09-27T11:11:47.818Z,16.10
2022-09-27T11:14:21.850Z,15.90
2022-09-27T11:17:00.290Z,15.80
2022-09-27T11:19:43.446Z,15.60
2022-09-27T11:22:31.231Z,15.50
2022-09-27T11:25:14.691Z,15.60
2022-09-27T11:27:58.101Z,15.70
2022-09-27T11:30:30.391Z,16.00
2022-09-27T11:33:12.927Z,16.10
2022-09-27T11:35:56.895Z,16.10
2022-09-27T11:38:51.534Z,16.00
2022-09-27T11:41:33.210Z,15.90
2022-09-27T11:44:19.677Z,15.80
2022-09-27T11:46:54.218Z,15.70
2022-09-27T11:49:47.393Z,15.50
2022-09-27T11:52:27.413Z,15.30
2022-09-27T11:55:19.514Z,15.00
2022-09-27T11:57:55.091Z,14.70
2022-09-27T12:00:24.712Z,14.30
2022-09-27T12:03:27.734Z,13.80
2022-09-27T12:06:07.634Z,13.50
2022-09-27T12:08:55.596Z,13.20
2022-09-27T12:11:30.368Z,12.90
2022-09-27T12:14:00.681Z,12.60
2022-09-27T12:16:31.349Z,12.50
2022-09-27T12:19:01.881Z,12.40
2022-09-27T12:21:32.701Z,12.50
2022-09-27T12:24:04.444Z,12.50
2022-09-27T12:26:38.604Z,12.30
2022-09-27T12:29:13.995Z,12.20
2022-09-27T12:31:47.497Z,12.10
2022-09-27T12:34:20.289Z,12.00
2022-09-27T12:36:52.641Z,12.00
2022-09-27T12:39:26.018Z,11.90
2022-09-27T12:42:01.922Z,11.80
2022-09-27T12:44:32.736Z,11.90
2022-09-27T12:47:08.461Z,12.00
2022-09-27T12:49:49.343Z,12.00
2022-09-27T12:52:25.370Z,12.00
2022-09-27T12:55:10.963Z,12.00
2022-09-27T12:57:49.624Z,12.10
2022-09-27T13:00:22.059Z,12.20
2022-09-27T13:03:30.860Z,12.20
2022-09-27T13:06:13.986Z,12.20
2022-09-27T13:09:00.119Z,12.10
2022-09-27T13:11:38.954Z,11.90
2022-09-27T13:14:11.395Z,11.80
2022-09-27T13:16:44.234Z,11.80
2022-09-27T13:19:39.988Z,12.00
2022-09-27T13:22:09.297Z,12.30
2022-09-27T13:24:51.000Z,12.60
2022-09-27T13:27:40.216Z,12.80
2022-09-27T13:30:41.487Z,12.90
2022-09-27T13:33:45.199Z,12.70
2022-09-27T13:36:31.266Z,12.40
2022-09-27T13:39:07.693Z,12.30
2022-09-27T13:41:55.914Z,12.10
2022-09-27T13:44:32.021Z,11.90
2022-09-27T13:47:02.400Z,11.80
2022-09-27T13:49:37.527Z,11.70
2022-09-27T13:52:20.548Z,11.60
2022-09-27T13:54:53.389Z,11.50
2022-09-27T13:57:44.067Z,11.50
2022-09-27T14:00:16.074Z,11.60
2022-09-27T14:02:55.211Z,11.60
2022-09-27T14:05:28.713Z,11.60
2022-09-27T14:07:59.767Z,11.60
2022-09-27T14:10:30.275Z,11.80
2022-09-27T14:13:01.868Z,11.90
2022-09-27T14:15:32.969Z,12.10
2022-09-27T14:18:01.092Z,12.30
2022-09-27T14:20:34.615Z,12.50
2022-09-27T14:23:04.662Z,12.50
2022-09-27T14:25:32.895Z,12.60
2022-09-27T14:28:00.771Z,12.60
2022-09-27T14:30:31.916Z,12.70
2022-09-27T14:33:00.681Z,12.80
2022-09-27T14:35:48.302Z,13.00
2022-09-27T14:38:36.662Z,13.20
2022-09-27T14:41:07.252Z,13.30
2022-09-27T14:43:37.116Z,13.30
2022-09-27T14:46:08.469Z,13.20
2022-09-27T14:48:38.757Z,13.20
2022-09-27T14:51:20.851Z,13.10
2022-09-27T14:53:51.555Z,13.10
2022-09-27T14:56:22.635Z,13.00
2022-09-27T14:58:56.574Z,12.90
2022-09-27T15:01:26.080Z,12.80
2022-09-27T15:03:54.673Z,12.70
2022-09-27T15:06:24.680Z,12.70
2022-09-27T15:08:53.960Z,12.80
2022-09-27T15:11:22.038Z,12.80
2022-09-27T15:13:54.115Z,13.00
2022-09-27T15:16:23.643Z,13.00
2022-09-27T15:19:03.666Z,13.10
2022-09-27T15:21:34.110Z,13.10
2022-09-27T15:24:02.958Z,13.00
2022-09-27T15:26:38.354Z,13.00
2022-09-27T15:29:06.727Z,12.90
2022-09-27T15:31:36.593Z,12.80
2022-09-27T15:34:06.884Z,12.70
2022-09-27T15:37:00.028Z,12.70
2022-09-27T15:39:30.149Z,12.70
2022-09-27T15:42:09.868Z,12.70
2022-09-27T15:44:49.617Z,12.70
2022-09-27T15:47:43.358Z,12.60
2022-09-27T15:50:37.921Z,12.60
2022-09-27T15:53:06.979Z,12.60
2022-09-27T15:55:40.123Z,12.50
2022-09-27T15:58:14.726Z,12.50
2022-09-27T16:00:52.828Z,12.50
2022-09-27T16:03:20.836Z,12.50
2022-09-27T16:05:50.092Z,12.50
2022-09-27T16:08:18.050Z,12.50
2022-09-27T16:10:49.403Z,12.40
2022-09-27T16:13:17.349Z,12.40
2022-09-27T16:15:46.171Z,12.20
2022-09-27T16:18:14.884Z,12.20
2022-09-27T16:20:43.136Z,12.10
2022-09-27T16:23:12.613Z,12.00
2022-09-27T16:25:40.510Z,12.00
2022-09-27T16:28:09.700Z,11.90
2022-09-27T16:30:37.570Z,11.90
2022-09-27T16:33:05.457Z,11.80
2022-09-27T16:35:33.342Z,11.90
2022-09-27T16:38:01.219Z,11.90
2022-09-27T16:40:30.799Z,11.90
2022-09-27T16:42:58.745Z,11.80
2022-09-27T16:45:33.457Z,11.80
2022-09-27T16:48:01.906Z,11.80
2022-09-27T16:50:47.248Z,11.70
2022-09-27T16:53:15.984Z,11.70
2022-09-27T16:55:45.319Z,11.60
2022-09-27T16:58:13.204Z,11.60
2022-09-27T17:00:41.939Z,11.50
2022-09-27T17:03:10.180Z,11.50
2022-09-27T17:05:38.081Z,11.50
2022-09-27T17:08:06.299Z,11.50
2022-09-27T17:10:35.811Z,11.50
2022-09-27T17:13:05.129Z,11.40
2022-09-27T17:15:33.005Z,11.40
2022-09-27T17:18:00.827Z,11.40
2022-09-27T17:20:28.697Z,11.40
2022-09-27T17:22:57.244Z,11.30
2022-09-27T17:25:25.144Z,11.30
2022-09-27T17:27:53.069Z,11.30
2022-09-27T17:30:23.044Z,11.30
2022-09-27T17:32:51.138Z,11.30
2022-09-27T17:35:19.057Z,11.30
2022-09-27T17:37:46.935Z,11.20
2022-09-27T17:40:16.197Z,11.20
2022-09-27T17:42:44.148Z,11.20
2022-09-27T17:45:12.329Z,11.10
2022-09-27T17:47:55.456Z,11.10
2022-09-27T17:50:27.414Z,11.10
2022-09-27T17:52:57.415Z,11.10
2022-09-27T17:55:25.751Z,11.10
2022-09-27T17:57:53.640Z,11.00
2022-09-27T18:00:21.686Z,11.00
2022-09-27T18:02:51.188Z,11.00
2022-09-27T18:05:21.210Z,10.90
2022-09-27T18:07:49.258Z,10.90
2022-09-27T18:10:18.076Z,10.90
2022-09-27T18:12:45.952Z,10.80
2022-09-27T18:15:17.882Z,10.80
2022-09-27T18:17:45.830Z,10.70
2022-09-27T18:20:15.270Z,10.70
2022-09-27T18:22:43.117Z,10.70
2022-09-27T18:25:11.893Z,10.60
2022-09-27T18:27:40.321Z,10.60
2022-09-27T18:30:09.658Z,10.50
2022-09-27T18:32:37.616Z,10.50
2022-09-27T18:35:06.949Z,10.50
2022-09-27T18:37:36.445Z,10.40
2022-09-27T18:40:04.570Z,10.40
2022-09-27T18:42:32.457Z,10.40
2022-09-27T18:45:00.392Z,10.30
2022-09-27T18:47:28.369Z,10.30
2022-09-27T18:49:56.292Z,10.20
2022-09-27T18:52:24.405Z,10.20
2022-09-27T18:54:53.687Z,10.10
2022-09-27T18:57:21.575Z,10.10
2022-09-27T18:59:49.454Z,10.00
2022-09-27T19:02:17.374Z,10.00
2022-09-27T19:04:45.255Z,9.90
2022-09-27T19:07:13.101Z,9.90
2022-09-27T19:09:41.191Z,9.90
2022-09-27T19:12:10.429Z,9.80
2022-09-27T19:14:48.198Z,9.80
2022-09-27T19:17:16.023Z,9.80
2022-09-27T19:19:43.955Z,9.70
2022-09-27T19:22:11.795Z,9.70
2022-09-27T19:24:39.673Z,9.70
2022-09-27T19:27:07.544Z,9.70
2022-09-27T19:29:37.173Z,9.70
2022-09-27T19:32:05.075Z,9.60
2022-09-27T19:34:33.049Z,9.60
2022-09-27T19:37:00.953Z,9.60
2022-09-27T19:39:28.846Z,9.60
2022-09-27T19:41:56.702Z,9.60
2022-09-27T19:44:25.962Z,9.50
2022-09-27T19:46:55.334Z,9.60
2022-09-27T19:49:23.262Z,9.60
2022-09-27T19:51:52.027Z,9.50
2022-09-27T19:54:19.959Z,9.60
2022-09-27T19:56:49.248Z,9.60
2022-09-27T19:59:17.381Z,9.60
2022-09-27T20:01:45.363Z,9.70
2022-09-27T20:04:15.081Z,9.70
2022-09-27T20:06:42.981Z,9.80
2022-09-27T20:09:10.945Z,9.80
2022-09-27T20:11:38.787Z,9.80
2022-09-27T20:14:06.661Z,9.80
2022-09-27T20:16:36.988Z,9.80
2022-09-27T20:19:10.331Z,9.80
2022-09-27T20:21:39.687Z,9.70
2022-09-27T20:24:07.692Z,9.70
2022-09-27T20:26:36.484Z,9.70
2022-09-27T20:29:06.224Z,9.70
2022-09-27T20:31:37.758Z,9.60
2022-09-27T20:34:07.284Z,9.60
2022-09-27T20:36:37.337Z,9.60
2022-09-27T20:39:08.001Z,9.60
2022-09-27T20:41:37.564Z,9.60
2022-09-27T20:44:07.153Z,9.60
2022-09-27T20:46:36.511Z,9.60
2022-09-27T20:49:06.985Z,9.60
2022-09-27T20:51:36.926Z,9.60
2022-09-27T20:54:07.985Z,9.60
2022-09-27T20:56:37.583Z,9.60
2022-09-27T20:59:09.389Z,9.60
2022-09-27T21:01:43.514Z,9.60
2022-09-27T21:04:12.765Z,9.60
2022-09-27T21:06:40.990Z,9.60
2022-09-27T21:09:11.248Z,9.60
2022-09-27T21:11:39.116Z,9.60
2022-09-27T21:14:07.014Z,9.60
2022-09-27T21:16:36.586Z,9.60
2022-09-27T21:19:04.489Z,9.60
2022-09-27T21:21:32.363Z,9.60
2022-09-27T21:24:01.976Z,9.50
2022-09-27T21:26:32.723Z,9.50
2022-09-27T21:29:02.452Z,9.50
2022-09-27T21:31:32.668Z,9.50
2022-09-27T21:34:03.359Z,9.50
2022-09-27T21:36:32.685Z,9.50
2022-09-27T21:39:00.953Z,9.50
2022-09-27T21:41:29.522Z,9.50
2022-09-27T21:43:58.761Z,9.50
2022-09-27T21:46:28.419Z,9.50
2022-09-27T21:48:58.102Z,9.60
2022-09-27T21:51:27.650Z,9.60
2022-09-27T21:53:57.411Z,9.60
2022-09-27T21:56:27.433Z,9.60
2022-09-27T21:58:55.758Z,9.60
2022-09-27T22:01:27.664Z,9.70
2022-09-27T22:03:55.590Z,9.70
2022-09-27T22:06:25.966Z,9.70
2022-09-27T22:08:54.869Z,9.70
2022-09-27T22:11:24.700Z,9.80
2022-09-27T22:13:52.843Z,9.80
2022-09-27T22:16:22.516Z,9.80
2022-09-27T22:18:54.340Z,9.90
2022-09-27T22:21:23.940Z,9.90
2022-09-27T22:23:54.976Z,9.90
2022-09-27T22:26:24.893Z,9.90
2022-09-27T22:28:53.221Z,9.90
2022-09-27T22:31:22.436Z,9.90
2022-09-27T22:33:53.269Z,9.90
2022-09-27T22:36:21.365Z,9.90
2022-09-27T22:38:49.665Z,9.90
2022-09-27T22:41:17.909Z,9.90
2022-09-27T22:43:45.937Z,10.00
2022-09-27T22:46:14.145Z,9.90
2022-09-27T22:48:42.311Z,9.90
2022-09-27T22:51:11.553Z,9.90
2022-09-27T22:53:39.705Z,9.90
2022-09-27T22:56:09.632Z,9.90
2022-09-27T22:58:38.555Z,9.90
2022-09-27T23:01:10.236Z,9.90
2022-09-27T23:03:38.304Z,9.90
2022-09-27T23:06:07.989Z,9.90
2022-09-27T23:08:38.420Z,9.90
2022-09-27T23:11:08.294Z,9.90
2022-09-27T23:13:38.636Z,9.90
2022-09-27T23:16:08.831Z,9.90
2022-09-27T23:18:37.264Z,9.90
2022-09-27T23:21:08.132Z,9.90
2022-09-27T23:23:40.609Z,9.80
2022-09-27T23:26:10.524Z,9.90
2022-09-27T23:28:38.881Z,9.90
2022-09-27T23:31:08.723Z,9.90
2022-09-27T23:33:37.691Z,9.90
2022-09-27T23:36:05.973Z,9.90
2022-09-27T23:38:34.472Z,9.90
2022-09-27T23:41:03.674Z,9.80
2022-09-27T23:43:31.512Z,9.80
2022-09-27T23:45:59.440Z,9.90
2022-09-27T23:48:27.895Z,9.90
2022-09-27T23:50:56.721Z,9.90
2022-09-27T23:53:25.468Z,9.90
2022-09-27T23:56:02.355Z,9.90
2022-09-27T23:58:33.742Z,9.90
